Portada
METAR-TAF:

METAR-TAF

Aeroports :

Chumphon, Tailàndia

latitud: 10-42-40N, longitud: 099-21-42E, altitud: 5 m

Observació

L'informe es va fer fa 9 hores i 5 minuts, a les 12:00 UTC
Vent 10 kt del Est/Nord-Est, variant entre Nord/Nord-Est i Est
Temperatura 29°C
Humitat 74%
Pressió 1010 hPa
Visibilitat: 9000 m

METAR: VTSE 261200Z 06010KT 020V090 9000 NSC 29/24 Q1010 NOSIG

Hora: 04:05 (21:05 UTC)

Pronòstic

L'informe es va fer fa 4 hores i 5 minuts, a les 17:00 UTC
Pronòstic vàlid del 26 a les 18 UTC al 27 a les 18 UTC
Vent 8 kt del Est/Nord-Est
Visibilitat: 9000 m
Escasses núvols a una alçada de 2000 ft

TAF: VTSE 261700Z 2618/2718 06008KT 9000 FEW020

Observacions i pronòstics meteorològics de més de 4000 aeroports (METAR i TAF).

Les estacions disponibles són els punts grocs i vermells al mapa.

Posi el ratolí al punt desitjat per veure el nom de l'estació.

Feu clic per veure les observacions i els pronòstics meteorològics.

Per canviar el mapa: feu clic els botons verds amb una creu de color negre per apropar; al botó verd amb un guió per allunyar la imatge; o en les fletxes verdes per a mapes adjacents.


METAR-TAF: